Princeton, Missouri
Current Conditions -  °F | °C
As of 2:53 AM on Saturday 29 Nov 2014 (Local Time) from KLWD Reporting Station
Clear Clear  
Wind Chill: 30°   Ceiling: Unl
Heat Index: 38°   Visibility: 10mi
Dew Point: 33°   Wind: 12mph
Humidity: 83%   Direction: 200°SSW
Pressure: 29.62"   Gusts: NA
Location:  40.4°N, 93.58°W
Report Text: KLWD 290853Z AUTO 20010KT 10SM CLR 03/01 A2962 RMK AO2 SLP035 T00330006 56012
Loading
Personal Weather Stations






























Interactive Weather Map New forecast layout! Learn more

10-Day Weather Forecast

Advertisements
Track Severe Weather on mobile